createdAt,value
2023-02-02T00:01:59.599Z,5.87
2023-02-02T00:04:27.632Z,5.87
2023-02-02T00:06:54.417Z,5.86
2023-02-02T00:09:21.091Z,5.89
2023-02-02T00:11:48.715Z,5.86
2023-02-02T00:14:15.352Z,5.83
2023-02-02T00:16:46.670Z,5.82
2023-02-02T00:19:17.811Z,5.79
2023-02-02T00:21:44.862Z,5.79
2023-02-02T00:24:12.481Z,5.77
2023-02-02T00:26:39.993Z,5.74
2023-02-02T00:29:07.491Z,5.77
2023-02-02T00:31:34.573Z,5.77
2023-02-02T00:34:01.147Z,5.75
2023-02-02T00:36:27.687Z,5.74
2023-02-02T00:38:54.367Z,5.73
2023-02-02T00:41:21.112Z,5.76
2023-02-02T00:44:07.614Z,5.73
2023-02-02T00:46:34.135Z,5.70
2023-02-02T00:49:00.725Z,5.74
2023-02-02T00:51:27.276Z,5.71
2023-02-02T00:53:53.774Z,5.74
2023-02-02T00:56:20.352Z,5.69
2023-02-02T00:58:46.908Z,5.67
2023-02-02T01:01:21.700Z,5.70
2023-02-02T01:03:49.151Z,5.73
2023-02-02T01:06:15.920Z,5.72
2023-02-02T01:08:43.886Z,5.73
2023-02-02T01:11:10.581Z,5.71
2023-02-02T01:13:37.347Z,5.76
2023-02-02T01:16:04.658Z,5.76
2023-02-02T01:18:31.832Z,5.76
2023-02-02T01:20:59.369Z,5.70
2023-02-02T01:23:25.989Z,5.72
2023-02-02T01:25:56.686Z,5.75
2023-02-02T01:28:23.927Z,5.79
2023-02-02T01:30:50.518Z,5.79
2023-02-02T01:33:17.758Z,5.77
2023-02-02T01:35:47.510Z,5.72
2023-02-02T01:38:14.434Z,5.68
2023-02-02T01:40:48.073Z,5.70
2023-02-02T01:43:37.880Z,5.64
2023-02-02T01:46:04.527Z,5.68
2023-02-02T01:48:33.179Z,5.64
2023-02-02T01:51:02.171Z,5.48
2023-02-02T01:53:29.416Z,5.45
2023-02-02T01:55:56.429Z,5.54
2023-02-02T01:58:24.976Z,5.55
2023-02-02T02:00:52.006Z,5.58
2023-02-02T02:03:20.649Z,5.53
2023-02-02T02:09:10.086Z,5.58
2023-02-02T02:11:36.655Z,5.58
2023-02-02T02:14:23.549Z,5.64
2023-02-02T02:17:08.966Z,5.62
2023-02-02T02:19:58.333Z,5.64
2023-02-02T02:23:05.889Z,5.64
2023-02-02T02:26:05.244Z,5.95
2023-02-02T02:28:50.461Z,6.01
2023-02-02T02:31:23.150Z,6.03
2023-02-02T02:34:02.242Z,6.02
2023-02-02T02:36:41.065Z,6.01
2023-02-02T02:39:10.621Z,6.01
2023-02-02T02:41:39.945Z,6.07
2023-02-02T02:44:11.609Z,6.02
2023-02-02T02:46:38.557Z,6.04
2023-02-02T02:49:08.137Z,6.02
2023-02-02T02:51:44.212Z,6.02
2023-02-02T02:54:15.792Z,5.97
2023-02-02T02:56:59.960Z,5.99
2023-02-02T02:59:26.441Z,6.04
2023-02-02T03:02:04.367Z,6.10
2023-02-02T03:04:30.888Z,6.11
2023-02-02T03:07:05.511Z,6.15
2023-02-02T03:09:36.103Z,6.14
2023-02-02T03:12:02.779Z,6.13
2023-02-02T03:14:29.382Z,6.14
2023-02-02T03:16:55.893Z,6.18
2023-02-02T03:19:22.502Z,6.07
2023-02-02T03:21:49.043Z,6.10
2023-02-02T03:24:15.580Z,6.13
2023-02-02T03:26:42.236Z,6.11
2023-02-02T03:29:08.854Z,6.06
2023-02-02T03:31:35.422Z,6.06
2023-02-02T03:34:01.961Z,6.10
2023-02-02T03:36:31.560Z,5.84
2023-02-02T03:38:58.086Z,5.80
2023-02-02T03:41:33.566Z,5.95
2023-02-02T03:44:00.101Z,5.99
2023-02-02T03:46:26.678Z,5.84
2023-02-02T03:48:53.299Z,5.95
2023-02-02T03:54:00.295Z,6.01
2023-02-02T03:56:38.923Z,6.03
2023-02-02T03:59:21.477Z,5.90
2023-02-02T04:01:48.057Z,6.04
2023-02-02T04:04:14.991Z,5.88
2023-02-02T04:06:41.723Z,5.75
2023-02-02T04:09:08.487Z,5.84
2023-02-02T04:11:35.735Z,5.97
2023-02-02T04:14:02.391Z,5.99
2023-02-02T04:16:31.014Z,6.09
2023-02-02T04:18:57.640Z,6.07
2023-02-02T04:21:24.168Z,6.05
2023-02-02T04:23:50.661Z,6.08
2023-02-02T04:26:17.211Z,6.08
2023-02-02T04:28:43.800Z,6.05
2023-02-02T04:31:10.505Z,6.01
2023-02-02T04:33:37.149Z,6.10
2023-02-02T04:36:04.198Z,6.03
2023-02-02T04:38:30.723Z,6.04
2023-02-02T04:40:57.273Z,6.03
2023-02-02T04:43:23.836Z,6.07
2023-02-02T04:45:55.366Z,6.02
2023-02-02T04:48:21.871Z,6.04
2023-02-02T04:50:48.431Z,6.05
2023-02-02T04:53:14.947Z,6.05
2023-02-02T04:55:41.498Z,6.07
2023-02-02T04:58:08.116Z,6.07
2023-02-02T05:00:34.728Z,6.13
2023-02-02T05:03:01.574Z,6.08
2023-02-02T05:05:28.218Z,6.16
2023-02-02T05:07:54.805Z,6.20
2023-02-02T05:10:21.319Z,6.15
2023-02-02T05:12:47.862Z,6.24
2023-02-02T05:15:14.504Z,6.30
2023-02-02T05:17:41.065Z,6.33
2023-02-02T05:20:07.872Z,6.36
2023-02-02T05:22:35.271Z,6.38
2023-02-02T05:25:02.441Z,6.40
2023-02-02T05:27:29.078Z,6.33
2023-02-02T05:29:55.575Z,6.31
2023-02-02T05:32:22.120Z,6.30
2023-02-02T05:34:48.689Z,6.35
2023-02-02T05:37:15.204Z,6.39
2023-02-02T05:39:41.737Z,6.40
2023-02-02T05:42:08.325Z,6.40
2023-02-02T05:44:34.877Z,6.41
2023-02-02T05:47:01.446Z,6.41
2023-02-02T05:49:28.058Z,6.35
2023-02-02T05:51:57.129Z,6.35
2023-02-02T05:54:23.779Z,6.40
2023-02-02T05:56:51.834Z,6.40
2023-02-02T05:59:18.691Z,6.42
2023-02-02T06:01:45.839Z,6.31
2023-02-02T06:04:12.853Z,6.39
2023-02-02T06:06:39.978Z,6.38
2023-02-02T06:09:06.870Z,6.40
2023-02-02T06:11:33.861Z,6.33
2023-02-02T06:14:00.544Z,6.39
2023-02-02T06:16:27.076Z,6.45
2023-02-02T06:18:54.166Z,6.34
2023-02-02T06:21:23.192Z,6.43
2023-02-02T06:23:52.719Z,6.49
2023-02-02T06:26:19.464Z,6.47
2023-02-02T06:28:50.320Z,6.43
2023-02-02T06:31:19.460Z,6.43
2023-02-02T06:33:46.645Z,6.57
2023-02-02T06:36:13.220Z,6.52
2023-02-02T06:38:39.933Z,6.57
2023-02-02T06:41:07.295Z,6.55
2023-02-02T06:43:33.962Z,6.66
2023-02-02T06:46:00.805Z,6.50
2023-02-02T06:48:27.901Z,6.54
2023-02-02T06:50:54.615Z,6.57
2023-02-02T06:53:24.065Z,6.68
2023-02-02T06:55:54.579Z,6.68
2023-02-02T06:58:21.162Z,6.75
2023-02-02T07:00:48.350Z,6.78
2023-02-02T07:03:15.900Z,6.80
2023-02-02T07:05:42.424Z,6.77
2023-02-02T07:08:09.316Z,6.74
2023-02-02T07:11:14.485Z,6.74
2023-02-02T07:13:26.060Z,6.83
2023-02-02T07:15:54.713Z,6.88
2023-02-02T07:18:21.331Z,6.88
2023-02-02T07:20:47.843Z,6.88
2023-02-02T07:23:14.418Z,6.86
2023-02-02T07:25:43.602Z,6.84
2023-02-02T07:28:10.376Z,6.90
2023-02-02T07:30:37.085Z,6.94
2023-02-02T07:33:03.718Z,6.88
2023-02-02T07:35:30.311Z,7.00
2023-02-02T07:37:57.511Z,6.93
2023-02-02T07:40:24.118Z,6.86
2023-02-02T07:42:50.671Z,6.92
2023-02-02T07:45:24.572Z,6.99
2023-02-02T07:48:00.882Z,7.05
2023-02-02T07:50:28.638Z,6.98
2023-02-02T07:52:55.208Z,6.98
2023-02-02T07:55:21.747Z,7.00
2023-02-02T07:57:48.378Z,7.04
2023-02-02T08:00:15.033Z,7.07
2023-02-02T08:02:41.579Z,7.03
2023-02-02T08:05:08.365Z,7.11
2023-02-02T08:07:35.201Z,7.06
2023-02-02T08:10:01.812Z,7.08
2023-02-02T08:12:28.459Z,7.05
2023-02-02T08:14:55.046Z,7.11
2023-02-02T08:17:23.128Z,7.08
2023-02-02T08:19:49.726Z,7.04
2023-02-02T08:22:16.321Z,7.15
2023-02-02T08:24:43.102Z,7.19
2023-02-02T08:27:10.216Z,7.21
2023-02-02T08:29:37.113Z,7.23
2023-02-02T08:32:03.952Z,7.22
2023-02-02T08:34:30.516Z,7.26
2023-02-02T08:36:57.042Z,7.26
2023-02-02T08:39:24.610Z,7.19
2023-02-02T08:41:51.174Z,7.22
2023-02-02T08:44:17.740Z,7.28
2023-02-02T08:46:46.086Z,7.27
2023-02-02T08:49:13.386Z,7.26
2023-02-02T08:51:40.241Z,7.36
2023-02-02T08:54:09.502Z,7.34
2023-02-02T08:56:36.207Z,7.33
2023-02-02T08:59:06.035Z,7.43
2023-02-02T09:01:33.173Z,7.39
2023-02-02T09:04:01.729Z,7.35
2023-02-02T09:06:29.532Z,7.47
2023-02-02T09:08:56.096Z,7.52
2023-02-02T09:11:22.655Z,7.53
2023-02-02T09:13:49.868Z,7.58
2023-02-02T09:16:18.186Z,7.62
2023-02-02T09:18:45.707Z,7.65
2023-02-02T09:21:13.697Z,7.68
2023-02-02T09:23:41.170Z,7.69
2023-02-02T09:26:11.902Z,7.75
2023-02-02T09:28:39.425Z,7.81
2023-02-02T09:31:06.742Z,7.77
2023-02-02T09:33:33.393Z,7.83
2023-02-02T09:36:14.201Z,7.93
2023-02-02T09:38:41.448Z,7.91
2023-02-02T09:41:26.703Z,7.93
2023-02-02T09:44:12.000Z,7.99
2023-02-02T09:47:11.065Z,7.90
2023-02-02T09:49:41.242Z,7.94
2023-02-02T09:52:14.239Z,8.09
2023-02-02T09:54:46.327Z,8.13
2023-02-02T09:57:19.897Z,8.15
2023-02-02T09:59:49.314Z,8.21
2023-02-02T10:02:19.391Z,8.33
2023-02-02T10:04:49.195Z,8.30
2023-02-02T10:07:19.126Z,8.38
2023-02-02T10:10:21.294Z,8.42
2023-02-02T10:13:06.166Z,8.50
2023-02-02T10:15:35.900Z,8.43
2023-02-02T10:18:21.048Z,8.49
2023-02-02T10:20:54.378Z,8.58
2023-02-02T10:23:20.898Z,8.63
2023-02-02T10:26:20.498Z,8.48
2023-02-02T10:28:56.247Z,8.64
2023-02-02T10:31:30.649Z,8.65
2023-02-02T10:34:17.443Z,8.74
2023-02-02T10:36:46.979Z,8.82
2023-02-02T10:39:19.309Z,8.87
2023-02-02T10:41:54.913Z,8.88
2023-02-02T10:44:46.301Z,8.94
2023-02-02T10:47:16.096Z,8.89
2023-02-02T10:49:42.690Z,9.02
2023-02-02T10:52:17.715Z,8.99
2023-02-02T10:55:04.502Z,9.04
2023-02-02T10:57:41.167Z,9.02
2023-02-02T11:00:10.997Z,9.09
2023-02-02T11:02:37.661Z,9.25
2023-02-02T11:05:22.941Z,9.17
2023-02-02T11:07:49.844Z,9.23
2023-02-02T11:10:16.471Z,9.32
2023-02-02T11:12:49.976Z,9.35
2023-02-02T11:15:27.533Z,9.36
2023-02-02T11:17:54.892Z,9.53
2023-02-02T11:20:23.789Z,9.48
2023-02-02T11:22:59.335Z,9.52
2023-02-02T11:25:35.264Z,9.59
2023-02-02T11:28:18.884Z,9.56
2023-02-02T11:30:52.288Z,9.50
2023-02-02T11:33:28.501Z,9.56
2023-02-02T11:35:59.546Z,9.81
2023-02-02T11:38:26.734Z,9.65
2023-02-02T11:40:58.637Z,9.79
2023-02-02T11:43:27.125Z,9.88
2023-02-02T11:45:56.388Z,9.87
2023-02-02T11:48:24.942Z,9.86
2023-02-02T11:50:53.870Z,9.91
2023-02-02T11:53:23.579Z,10.04
2023-02-02T11:55:50.610Z,10.07
2023-02-02T11:58:20.171Z,10.15
2023-02-02T12:00:50.536Z,10.13
2023-02-02T12:03:24.494Z,10.20
2023-02-02T12:05:51.184Z,10.15
2023-02-02T12:08:17.796Z,10.18
2023-02-02T12:10:51.150Z,10.16
2023-02-02T12:13:22.575Z,10.20
2023-02-02T12:16:09.134Z,10.26
2023-02-02T12:18:54.531Z,10.31
2023-02-02T12:21:24.181Z,10.42
2023-02-02T12:24:03.004Z,10.45
2023-02-02T12:26:34.330Z,10.37
2023-02-02T12:29:07.126Z,10.31
2023-02-02T12:31:41.769Z,10.34
2023-02-02T12:34:27.388Z,10.35
2023-02-02T12:36:53.932Z,10.31
2023-02-02T12:39:23.233Z,10.33
2023-02-02T12:41:52.848Z,10.38
2023-02-02T12:44:39.603Z,10.36
2023-02-02T12:47:17.287Z,10.41
2023-02-02T12:50:02.350Z,10.39
2023-02-02T12:52:41.171Z,10.46
2023-02-02T12:55:16.809Z,10.39
2023-02-02T12:57:55.481Z,10.50
2023-02-02T13:00:28.372Z,10.50
2023-02-02T13:03:13.552Z,10.55
2023-02-02T13:05:55.351Z,10.59
2023-02-02T13:08:26.811Z,10.57
2023-02-02T13:10:55.174Z,10.47
2023-02-02T13:13:27.414Z,10.43
2023-02-02T13:16:06.367Z,10.43
2023-02-02T13:18:37.221Z,10.44
2023-02-02T13:21:11.026Z,10.50
2023-02-02T13:23:40.560Z,10.47
2023-02-02T13:26:16.367Z,10.53
2023-02-02T13:28:52.336Z,10.51
2023-02-02T13:31:23.111Z,10.53
2023-02-02T13:33:53.646Z,10.57
2023-02-02T13:36:28.643Z,10.60
2023-02-02T13:39:00.167Z,10.53
2023-02-02T13:41:27.387Z,10.55
2023-02-02T13:43:53.932Z,10.69
2023-02-02T13:46:34.155Z,10.70
2023-02-02T13:49:00.657Z,10.79
2023-02-02T13:51:42.437Z,10.69
2023-02-02T13:54:27.919Z,10.76
2023-02-02T13:57:13.039Z,10.75
2023-02-02T13:59:49.115Z,10.85
2023-02-02T14:02:30.388Z,10.85
2023-02-02T14:04:58.506Z,10.85
2023-02-02T14:07:44.418Z,10.80
2023-02-02T14:10:32.734Z,10.65
2023-02-02T14:13:38.831Z,10.57
2023-02-02T14:16:06.632Z,10.69
2023-02-02T14:18:48.650Z,10.73
2023-02-02T14:21:33.656Z,10.60
2023-02-02T14:24:03.110Z,10.46
2023-02-02T14:26:44.643Z,10.61
2023-02-02T14:29:46.416Z,10.62
2023-02-02T14:32:27.875Z,10.60
2023-02-02T14:34:55.665Z,10.73
2023-02-02T14:37:26.348Z,10.63
2023-02-02T14:40:11.188Z,10.68
2023-02-02T14:43:05.434Z,10.56
2023-02-02T14:45:36.502Z,10.65
2023-02-02T14:48:11.327Z,10.69
2023-02-02T14:50:37.868Z,10.69
2023-02-02T14:53:15.671Z,10.64
2023-02-02T14:55:51.189Z,10.66
2023-02-02T14:58:36.036Z,10.61
2023-02-02T15:01:08.626Z,10.56
2023-02-02T15:03:38.141Z,10.57
2023-02-02T15:06:08.802Z,10.55
2023-02-02T15:08:35.535Z,10.57
2023-02-02T15:11:23.586Z,10.56
2023-02-02T15:13:52.979Z,10.33
2023-02-02T15:16:24.859Z,10.48
2023-02-02T15:18:58.345Z,10.43
2023-02-02T15:21:26.758Z,10.44
2023-02-02T15:23:54.391Z,10.48
2023-02-02T15:26:27.733Z,10.53
2023-02-02T15:29:07.453Z,10.42
2023-02-02T15:31:40.467Z,10.44
2023-02-02T15:34:45.529Z,10.49
2023-02-02T15:37:16.127Z,10.62
2023-02-02T15:39:51.644Z,10.59
2023-02-02T15:42:39.396Z,10.55
2023-02-02T15:45:06.590Z,10.69
2023-02-02T15:47:36.085Z,10.70
2023-02-02T15:50:04.853Z,10.70
2023-02-02T15:52:35.527Z,10.75
2023-02-02T15:55:02.520Z,10.84
2023-02-02T15:57:31.291Z,10.79
2023-02-02T15:59:57.893Z,10.91
2023-02-02T16:02:27.582Z,10.83
2023-02-02T16:04:54.163Z,10.70
2023-02-02T16:07:28.218Z,10.94
2023-02-02T16:09:54.841Z,10.85
2023-02-02T16:12:22.507Z,10.87
2023-02-02T16:14:53.581Z,11.02
2023-02-02T16:17:27.044Z,10.92
2023-02-02T16:19:59.629Z,10.98
2023-02-02T16:22:26.441Z,10.92
2023-02-02T16:24:54.565Z,10.98
2023-02-02T16:27:23.593Z,10.88
2023-02-02T16:29:50.498Z,10.91
2023-02-02T16:32:29.336Z,10.91
2023-02-02T16:34:55.894Z,10.83
2023-02-02T16:37:25.589Z,10.75
2023-02-02T16:39:52.241Z,10.61
2023-02-02T16:42:31.789Z,10.66
2023-02-02T16:45:00.647Z,10.48
2023-02-02T16:47:27.133Z,10.44
2023-02-02T16:50:08.857Z,10.39
2023-02-02T16:52:47.876Z,10.38
2023-02-02T16:55:17.292Z,10.34
2023-02-02T16:57:45.610Z,10.24
2023-02-02T17:00:21.444Z,10.19
2023-02-02T17:02:49.185Z,10.22
2023-02-02T17:05:32.998Z,10.10
2023-02-02T17:08:03.855Z,10.05
2023-02-02T17:10:32.291Z,10.20
2023-02-02T17:12:59.962Z,10.10
2023-02-02T17:15:34.972Z,10.04
2023-02-02T17:18:02.854Z,9.96
2023-02-02T17:20:29.669Z,10.10
2023-02-02T17:22:58.502Z,10.11
2023-02-02T17:25:35.368Z,9.98
2023-02-02T17:28:02.327Z,10.13
2023-02-02T17:30:29.415Z,9.97
2023-02-02T17:32:56.280Z,10.11
2023-02-02T17:35:24.465Z,10.19
2023-02-02T17:37:54.666Z,10.29
2023-02-02T17:40:22.956Z,10.34
2023-02-02T17:42:51.132Z,10.45
2023-02-02T17:45:33.622Z,10.50
2023-02-02T17:48:00.880Z,10.50
2023-02-02T17:50:27.862Z,10.74
2023-02-02T17:52:54.759Z,10.59
2023-02-02T17:55:24.333Z,10.52
2023-02-02T17:57:52.501Z,10.49
2023-02-02T18:00:20.233Z,10.67
2023-02-02T18:02:47.617Z,10.73
2023-02-02T18:05:15.566Z,10.75
2023-02-02T18:07:42.421Z,10.81
2023-02-02T18:10:09.814Z,10.78
2023-02-02T18:12:36.420Z,10.81
2023-02-02T18:15:04.445Z,10.76
2023-02-02T18:17:33.927Z,10.64
2023-02-02T18:20:01.016Z,10.55
2023-02-02T18:22:27.635Z,10.46
2023-02-02T18:24:54.143Z,10.52
2023-02-02T18:27:20.791Z,10.47
2023-02-02T18:29:48.370Z,10.40
2023-02-02T18:32:15.671Z,10.40
2023-02-02T18:34:42.214Z,10.38
2023-02-02T18:37:08.839Z,10.28
2023-02-02T18:39:35.537Z,10.25
2023-02-02T18:42:02.796Z,10.39
2023-02-02T18:44:29.678Z,10.29
2023-02-02T18:46:56.248Z,10.42
2023-02-02T18:49:23.293Z,10.48
2023-02-02T18:51:49.926Z,10.33
2023-02-02T18:54:16.454Z,10.29
2023-02-02T18:56:43.013Z,10.22
2023-02-02T18:59:09.580Z,10.18
2023-02-02T19:01:36.619Z,10.25
2023-02-02T19:04:03.646Z,10.22
2023-02-02T19:06:49.042Z,10.19
2023-02-02T19:09:17.403Z,10.09
2023-02-02T19:11:47.335Z,10.21
2023-02-02T19:14:20.213Z,10.15
2023-02-02T19:16:48.132Z,10.23
2023-02-02T19:19:22.106Z,10.30
2023-02-02T19:21:48.820Z,10.26
2023-02-02T19:24:15.356Z,10.44
2023-02-02T19:26:45.445Z,10.38
2023-02-02T19:29:22.511Z,10.36
2023-02-02T19:32:04.746Z,10.19
2023-02-02T19:34:33.506Z,10.29
2023-02-02T19:37:02.293Z,10.53
2023-02-02T19:39:30.909Z,10.52
2023-02-02T19:42:00.103Z,10.49
2023-02-02T19:44:29.878Z,10.45
2023-02-02T19:46:57.204Z,10.45
2023-02-02T19:49:27.346Z,10.44
2023-02-02T19:51:55.343Z,10.37
2023-02-02T19:54:36.247Z,10.36
2023-02-02T19:57:11.593Z,10.21
2023-02-02T19:59:38.210Z,10.20
2023-02-02T20:02:23.373Z,10.16
2023-02-02T20:04:53.558Z,10.13
2023-02-02T20:07:20.206Z,9.91
2023-02-02T20:09:46.785Z,10.37
2023-02-02T20:12:18.632Z,10.49
2023-02-02T20:14:47.476Z,10.55
2023-02-02T20:17:19.725Z,10.56
2023-02-02T20:19:46.978Z,10.57
2023-02-02T20:22:29.665Z,10.63
2023-02-02T20:24:57.067Z,10.58
2023-02-02T20:27:25.155Z,10.68
2023-02-02T20:29:53.224Z,10.81
2023-02-02T20:32:22.433Z,10.68
2023-02-02T20:34:50.579Z,10.93
2023-02-02T20:37:22.886Z,10.61
2023-02-02T20:39:50.029Z,10.17
2023-02-02T20:42:16.576Z,10.10
2023-02-02T20:44:43.327Z,10.10
2023-02-02T20:47:10.006Z,10.29
2023-02-02T20:49:37.273Z,10.46
2023-02-02T20:52:05.226Z,10.37
2023-02-02T20:54:32.883Z,10.41
2023-02-02T20:56:59.873Z,10.33
2023-02-02T20:59:26.420Z,10.34
2023-02-02T21:01:53.095Z,10.34
2023-02-02T21:04:19.972Z,10.32
2023-02-02T21:06:48.367Z,10.40
2023-02-02T21:09:15.374Z,10.39
2023-02-02T21:11:42.221Z,10.36
2023-02-02T21:14:09.049Z,10.41
2023-02-02T21:16:35.754Z,10.33
2023-02-02T21:19:02.355Z,10.39
2023-02-02T21:21:29.193Z,10.43
2023-02-02T21:23:56.822Z,10.51
2023-02-02T21:26:27.170Z,10.51
2023-02-02T21:28:53.896Z,10.48
2023-02-02T21:31:20.578Z,10.54
2023-02-02T21:33:48.004Z,10.49
2023-02-02T21:36:15.954Z,10.56
2023-02-02T21:38:42.476Z,10.66
2023-02-02T21:41:13.671Z,10.70
2023-02-02T21:43:40.393Z,10.80
2023-02-02T21:46:20.291Z,10.68
2023-02-02T21:48:48.087Z,10.78
2023-02-02T21:51:44.180Z,10.78
2023-02-02T21:54:19.845Z,10.85
2023-02-02T21:56:46.506Z,10.84
2023-02-02T21:59:15.239Z,10.94
2023-02-02T22:01:41.873Z,10.94
2023-02-02T22:04:28.617Z,10.99
2023-02-02T22:06:59.182Z,11.05
2023-02-02T22:09:37.112Z,11.14
2023-02-02T22:12:12.174Z,11.07
2023-02-02T22:14:42.509Z,11.20
2023-02-02T22:17:15.091Z,11.21
2023-02-02T22:19:43.575Z,11.29
2023-02-02T22:22:23.878Z,11.14
2023-02-02T22:25:10.648Z,11.31
2023-02-02T22:27:40.501Z,11.31
2023-02-02T22:30:13.286Z,11.37
2023-02-02T22:32:39.771Z,11.45
2023-02-02T22:35:06.509Z,11.41
2023-02-02T22:37:33.010Z,11.53
2023-02-02T22:40:00.788Z,11.47
2023-02-02T22:42:27.590Z,11.50
2023-02-02T22:44:54.111Z,11.57
2023-02-02T22:47:20.641Z,11.48
2023-02-02T22:49:47.208Z,11.58
2023-02-02T22:52:13.720Z,11.54
2023-02-02T22:54:40.260Z,11.62
2023-02-02T22:57:06.775Z,11.53
2023-02-02T22:59:33.266Z,11.59
2023-02-02T23:01:59.922Z,11.57
2023-02-02T23:04:26.470Z,11.59
2023-02-02T23:06:53.052Z,11.52
2023-02-02T23:09:19.571Z,11.44
2023-02-02T23:11:48.587Z,11.44
2023-02-02T23:14:15.863Z,11.49
2023-02-02T23:16:42.375Z,11.44
2023-02-02T23:19:08.972Z,11.51
2023-02-02T23:21:35.499Z,11.44
2023-02-02T23:24:02.053Z,11.50
2023-02-02T23:26:28.611Z,11.44
2023-02-02T23:28:55.127Z,11.30
2023-02-02T23:31:21.766Z,11.31
2023-02-02T23:33:48.368Z,11.24
2023-02-02T23:36:14.971Z,11.29
2023-02-02T23:38:41.497Z,11.09
2023-02-02T23:41:08.048Z,11.11
2023-02-02T23:43:34.560Z,11.32
2023-02-02T23:46:01.075Z,11.30
2023-02-02T23:48:27.706Z,11.07
2023-02-02T23:50:54.430Z,10.93
2023-02-02T23:53:21.053Z,10.92
2023-02-02T23:55:47.685Z,10.87
2023-02-02T23:58:14.591Z,10.75
